This demonstration page uses our WeatherBlox Daily Observations layout. Learn more.

Left ArrowRight Arrow

41.55636, -103.73856

Hourly Observations for July 3, 2015

Temp ( °F °C ) Dew Point ( °F °C ) Humidity (%) Winds ( mph kmh ) Pressure ( in mb ) Visibility ( mi km ) Precip ( " mm )
12:53 am 00:53 Partly Cloudy 65 18.3 61 16.1 87 87 ENE 5 7 29.99 1016 10 16.0934 0 0
1:53 am 01:53 Mostly Cloudy 65 18.3 60 15.6 84 84 Calm 29.99 1016 10 16.0934 0 0
2:53 am 02:53 Clear 63 17.2 59 15 87 87 NE 3 6 29.99 1016 9 14.48406 0 0
3:53 am 03:53 Clear 61 16.1 59 15 93 93 NE 5 7 29.99 1016 8 12.87472 0 0
4:53 am 04:53 Partly Cloudy 61 16.1 58 14.4 90 90 Calm 30 1016 9 14.48406 0 0
5:53 am 05:53 Sunny with Mist and Fog 62 16.7 59 15 90 90 NE 3 6 30 1016 6 9.65604 0 0
6:53 am 06:53 Hazy 66 18.9 61 16.1 84 84 Calm 30 1016 6 9.65604 0 0
7:53 am 07:53 Sunny 69 20.6 59 15 70 70 Calm 30 1016 8 12.87472 0 0
8:53 am 08:53 Sunny 73 22.8 57 13.9 57 57 Calm 30 1016 10 16.0934 0 0
9:53 am 09:53 Sunny 76 24.4 55 12.8 48 48 SSE 8 13 29.99 1016 9 14.48406 0 0
10:53 am 10:53 Sunny 77 25 55 13 47 47 VRB 5 7 29.88 1012 9 14.48406 0 0
11:53 am 11:53 Sunny 81 27.2 54 12.2 39 39 undefined N/A 29.96 1015 9 14.48406 0 0
12:53 pm 12:53 Sunny 83 28.3 54 12.2 37 37 undefined N/A 29.95 1014 10 16.0934 0 0
1:53 pm 13:53 Sunny 84 28.9 54 12.2 36 36 ENE 7 11 29.93 1013 10 16.0934 0 0
2:53 pm 14:53 Sunny 84 28.9 54 12.2 36 36 undefined N/A 29.91 1013 10 16.0934 0 0
3:53 pm 15:53 Sunny 86 30 55 12.8 35 35 VRB 7 11 29.89 1012 10 16.0934 0 0
4:53 pm 16:53 Sunny 85 29.4 56 13.3 37 37 E 7 11 29.88 1012 10 16.0934 0 0
5:53 pm 17:53 Sunny 85 29.4 56 13.3 37 37 ESE 10 17 29.85 1011 10 16.0934 0 0
6:53 pm 18:53 Sunny 82 27.8 56 13.3 41 41 SE 10 17 29.85 1011 10 16.0934 0 0
7:53 pm 19:53 Sunny 80 26.7 56 13.3 44 44 SE 14 22 29.85 1011 10 16.0934 0 0
8:53 pm 20:53 Mostly Clear 76 24.4 58 14.4 54 54 ESE 10 17 29.86 1011 10 16.0934 0 0
9:53 pm 21:53 Clear 74 23.3 57 13.9 56 56 ESE 8 13 29.89 1012 10 16.0934 0 0
10:53 pm 22:53 Clear 72 22.2 57 13.9 59 59 SE 9 15 29.88 1012 10 16.0934 0 0
11:53 pm 23:53 Clear 71 21.7 57 13.9 61 61 ESE 9 15 29.86 1011 10 16.0934 0 0

Powered by AerisWeather